sensor_id;sensor_type;location;lat;lon;timestamp;pressure;altitude;pressure_sealevel;temperature;humidity
63652;BME280;49801;37.536;-122.304;2023-02-01T00:00:00;101902.53;;;13.83;19.11
63652;BME280;49801;37.536;-122.304;2023-02-01T00:00:26;101902.53;;;13.83;19.12
63652;BME280;49801;37.536;-122.304;2023-02-01T00:00:52;101898.81;;;13.84;19.29
63652;BME280;49801;37.536;-122.304;2023-02-01T00:01:19;101905.44;;;13.81;19.35
63652;BME280;49801;37.536;-122.304;2023-02-01T00:01:45;101904.59;;;13.81;19.49
63652;BME280;49801;37.536;-122.304;2023-02-01T00:02:11;101899.78;;;13.75;19.60
63652;BME280;49801;37.536;-122.304;2023-02-01T00:02:37;101903.56;;;13.74;19.63
63652;BME280;49801;37.536;-122.304;2023-02-01T00:03:06;101895.03;;;13.68;19.91
63652;BME280;49801;37.536;-122.304;2023-02-01T00:03:34;101901.31;;;13.69;19.87
63652;BME280;49801;37.536;-122.304;2023-02-01T00:04:00;101901.47;;;13.67;19.76
63652;BME280;49801;37.536;-122.304;2023-02-01T00:04:26;101898.75;;;13.67;19.92
63652;BME280;49801;37.536;-122.304;2023-02-01T00:04:52;101898.75;;;13.67;20.02
63652;BME280;49801;37.536;-122.304;2023-02-01T00:05:18;101910.31;;;13.69;19.87
63652;BME280;49801;37.536;-122.304;2023-02-01T00:05:54;101898.06;;;13.65;19.92
63652;BME280;49801;37.536;-122.304;2023-02-01T00:06:20;101897.75;;;13.68;19.85
63652;BME280;49801;37.536;-122.304;2023-02-01T00:06:46;101888.50;;;13.61;19.34
63652;BME280;49801;37.536;-122.304;2023-02-01T00:07:12;101912.03;;;13.71;19.74
63652;BME280;49801;37.536;-122.304;2023-02-01T00:07:38;101903.53;;;13.65;19.83
63652;BME280;49801;37.536;-122.304;2023-02-01T00:08:05;101908.28;;;13.63;20.07
63652;BME280;49801;37.536;-122.304;2023-02-01T00:08:31;101901.13;;;13.62;20.11
63652;BME280;49801;37.536;-122.304;2023-02-01T00:08:57;101897.72;;;13.60;20.07
63652;BME280;49801;37.536;-122.304;2023-02-01T00:09:23;101907.72;;;13.60;19.91
63652;BME280;49801;37.536;-122.304;2023-02-01T00:09:49;101905.19;;;13.58;19.79
63652;BME280;49801;37.536;-122.304;2023-02-01T00:10:16;101902.13;;;13.53;19.80
63652;BME280;49801;37.536;-122.304;2023-02-01T00:10:42;101903.13;;;13.52;19.58
63652;BME280;49801;37.536;-122.304;2023-02-01T00:11:10;101902.13;;;13.53;19.71
63652;BME280;49801;37.536;-122.304;2023-02-01T00:11:37;101901.25;;;13.53;19.91
63652;BME280;49801;37.536;-122.304;2023-02-01T00:12:03;101893.91;;;13.45;19.80
63652;BME280;49801;37.536;-122.304;2023-02-01T00:12:30;101901.25;;;13.53;19.62
63652;BME280;49801;37.536;-122.304;2023-02-01T00:12:57;101907.19;;;13.56;19.65
63652;BME280;49801;37.536;-122.304;2023-02-01T00:13:23;101912.84;;;13.55;19.89
63652;BME280;49801;37.536;-122.304;2023-02-01T00:13:49;101905.84;;;13.52;20.01
63652;BME280;49801;37.536;-122.304;2023-02-01T00:14:15;101907.88;;;13.50;20.02
63652;BME280;49801;37.536;-122.304;2023-02-01T00:14:42;101909.56;;;13.51;20.26
63652;BME280;49801;37.536;-122.304;2023-02-01T00:15:08;101906.47;;;13.46;20.36
63652;BME280;49801;37.536;-122.304;2023-02-01T00:15:35;101908.19;;;13.47;20.11
63652;BME280;49801;37.536;-122.304;2023-02-01T00:16:38;101905.00;;;13.52;20.54
63652;BME280;49801;37.536;-122.304;2023-02-01T00:17:07;101899.66;;;13.42;20.28
63652;BME280;49801;37.536;-122.304;2023-02-01T00:17:34;101910.97;;;13.55;20.65
63652;BME280;49801;37.536;-122.304;2023-02-01T00:18:00;101915.38;;;13.56;20.89
63652;BME280;49801;37.536;-122.304;2023-02-01T00:18:26;101909.09;;;13.56;20.95
63652;BME280;49801;37.536;-122.304;2023-02-01T00:19:00;101901.38;;;13.43;21.05
63652;BME280;49801;37.536;-122.304;2023-02-01T00:19:26;101904.47;;;13.48;20.83
63652;BME280;49801;37.536;-122.304;2023-02-01T00:19:53;101902.44;;;13.50;21.07
63652;BME280;49801;37.536;-122.304;2023-02-01T00:20:19;101908.72;;;13.50;20.99
63652;BME280;49801;37.536;-122.304;2023-02-01T00:20:46;101907.88;;;13.50;21.05
63652;BME280;49801;37.536;-122.304;2023-02-01T00:21:17;101912.66;;;13.56;20.96
63652;BME280;49801;37.536;-122.304;2023-02-01T00:21:44;101891.88;;;13.47;21.06
63652;BME280;49801;37.536;-122.304;2023-02-01T00:22:11;101906.88;;;13.59;20.93
63652;BME280;49801;37.536;-122.304;2023-02-01T00:22:37;101905.88;;;13.60;21.28
63652;BME280;49801;37.536;-122.304;2023-02-01T00:23:03;101906.72;;;13.61;20.73
63652;BME280;49801;37.536;-122.304;2023-02-01T00:23:35;101906.88;;;13.59;20.75
63652;BME280;49801;37.536;-122.304;2023-02-01T00:24:02;101910.63;;;13.58;20.94
63652;BME280;49801;37.536;-122.304;2023-02-01T00:24:28;101907.19;;;13.56;20.93
63652;BME280;49801;37.536;-122.304;2023-02-01T00:24:54;101915.06;;;13.59;21.30
63652;BME280;49801;37.536;-122.304;2023-02-01T00:25:20;101889.84;;;13.49;21.19
63652;BME280;49801;37.536;-122.304;2023-02-01T00:25:46;101915.06;;;13.59;21.36
63652;BME280;49801;37.536;-122.304;2023-02-01T00:26:16;101910.44;;;13.52;20.47
63652;BME280;49801;37.536;-122.304;2023-02-01T00:26:44;101913.31;;;13.50;20.65
63652;BME280;49801;37.536;-122.304;2023-02-01T00:27:11;101901.38;;;13.43;20.84
63652;BME280;49801;37.536;-122.304;2023-02-01T00:27:43;101909.56;;;13.51;21.19
63652;BME280;49801;37.536;-122.304;2023-02-01T00:28:09;101913.31;;;13.50;21.27
63652;BME280;49801;37.536;-122.304;2023-02-01T00:28:35;101917.72;;;13.51;21.05
63652;BME280;49801;37.536;-122.304;2023-02-01T00:29:03;101910.59;;;13.50;20.71
63652;BME280;49801;37.536;-122.304;2023-02-01T00:29:29;101901.72;;;13.40;20.68
63652;BME280;49801;37.536;-122.304;2023-02-01T00:29:56;101918.75;;;13.50;20.23
63652;BME280;49801;37.536;-122.304;2023-02-01T00:30:22;101918.09;;;13.48;20.50
63652;BME280;49801;37.536;-122.304;2023-02-01T00:31:04;101915.00;;;13.51;20.82
63652;BME280;49801;37.536;-122.304;2023-02-01T00:31:30;101925.56;;;13.54;20.90
63652;BME280;49801;37.536;-122.304;2023-02-01T00:31:57;101921.47;;;13.50;20.85
63652;BME280;49801;37.536;-122.304;2023-02-01T00:32:23;101924.19;;;13.50;20.96
63652;BME280;49801;37.536;-122.304;2023-02-01T00:32:49;101920.81;;;13.48;20.99
63652;BME280;49801;37.536;-122.304;2023-02-01T00:33:15;101927.41;;;13.45;20.76
63652;BME280;49801;37.536;-122.304;2023-02-01T00:33:41;101929.13;;;13.46;20.56
63652;BME280;49801;37.536;-122.304;2023-02-01T00:34:13;101928.25;;;13.46;20.67
63652;BME280;49801;37.536;-122.304;2023-02-01T00:34:39;101925.72;;;13.44;20.86
63652;BME280;49801;37.536;-122.304;2023-02-01T00:35:06;101926.56;;;13.45;20.57
63652;BME280;49801;37.536;-122.304;2023-02-01T00:35:34;101926.56;;;13.45;20.93
63652;BME280;49801;37.536;-122.304;2023-02-01T00:36:03;101927.88;;;13.41;21.05
63652;BME280;49801;37.536;-122.304;2023-02-01T00:36:30;101932.13;;;13.35;21.08
63652;BME280;49801;37.536;-122.304;2023-02-01T00:36:57;101901.38;;;13.17;20.79
63652;BME280;49801;37.536;-122.304;2023-02-01T00:37:23;101931.59;;;13.31;21.18
63652;BME280;49801;37.536;-122.304;2023-02-01T00:37:49;101926.16;;;13.31;20.94
63652;BME280;49801;37.536;-122.304;2023-02-01T00:38:15;101931.28;;;13.35;20.48
63652;BME280;49801;37.536;-122.304;2023-02-01T00:38:41;101927.50;;;13.36;20.88
63652;BME280;49801;37.536;-122.304;2023-02-01T00:39:08;101916.09;;;13.32;20.98
63652;BME280;49801;37.536;-122.304;2023-02-01T00:39:34;101920.16;;;13.28;21.12
63652;BME280;49801;37.536;-122.304;2023-02-01T00:40:00;101928.16;;;13.29;20.59
63652;BME280;49801;37.536;-122.304;2023-02-01T00:40:27;101912.06;;;13.10;20.64
63652;BME280;49801;37.536;-122.304;2023-02-01T00:40:53;101901.19;;;13.10;20.95
63652;BME280;49801;37.536;-122.304;2023-02-01T00:41:20;101927.09;;;13.22;20.72
63652;BME280;49801;37.536;-122.304;2023-02-01T00:41:47;101922.28;;;13.16;20.65
63652;BME280;49801;37.536;-122.304;2023-02-01T00:42:13;101910.03;;;13.12;20.71
63652;BME280;49801;37.536;-122.304;2023-02-01T00:42:39;101916.22;;;13.22;20.54
63652;BME280;49801;37.536;-122.304;2023-02-01T00:43:05;101913.28;;;13.16;20.28
63652;BME280;49801;37.536;-122.304;2023-02-01T00:43:32;101933.06;;;13.26;20.36
63652;BME280;49801;37.536;-122.304;2023-02-01T00:43:58;101914.50;;;13.21;20.45
63652;BME280;49801;37.536;-122.304;2023-02-01T00:44:24;101929.47;;;13.25;20.71
63652;BME280;49801;37.536;-122.304;2023-02-01T00:44:51;101925.38;;;13.21;20.32
63652;BME280;49801;37.536;-122.304;2023-02-01T00:45:17;101928.56;;;13.17;20.78
63652;BME280;49801;37.536;-122.304;2023-02-01T00:45:45;101921.22;;;13.09;20.95
63652;BME280;49801;37.536;-122.304;2023-02-01T00:46:13;101918.75;;;12.98;20.37
63652;BME280;49801;37.536;-122.304;2023-02-01T00:46:40;101931.78;;;13.12;20.45
63652;BME280;49801;37.536;-122.304;2023-02-01T00:47:06;101925.31;;;13.13;20.65
63652;BME280;49801;37.536;-122.304;2023-02-01T00:47:32;101930.72;;;13.05;19.80
63652;BME280;49801;37.536;-122.304;2023-02-01T00:47:58;101929.69;;;13.06;20.18
63652;BME280;49801;37.536;-122.304;2023-02-01T00:48:25;101928.69;;;13.07;20.14
63652;BME280;49801;37.536;-122.304;2023-02-01T00:48:51;101921.84;;;13.03;20.36
63652;BME280;49801;37.536;-122.304;2023-02-01T00:49:18;101935.97;;;13.06;20.15
63652;BME280;49801;37.536;-122.304;2023-02-01T00:49:44;101928.31;;;13.02;20.21
63652;BME280;49801;37.536;-122.304;2023-02-01T00:50:10;101928.16;;;13.03;20.21
63652;BME280;49801;37.536;-122.304;2023-02-01T00:50:43;101924.19;;;12.98;20.51
63652;BME280;49801;37.536;-122.304;2023-02-01T00:51:13;101937.84;;;13.06;20.50
63652;BME280;49801;37.536;-122.304;2023-02-01T00:51:39;101927.66;;;13.08;20.23
63652;BME280;49801;37.536;-122.304;2023-02-01T00:52:05;101933.44;;;13.05;20.23
63652;BME280;49801;37.536;-122.304;2023-02-01T00:52:31;101929.69;;;13.06;20.14
63652;BME280;49801;37.536;-122.304;2023-02-01T00:52:57;101926.63;;;13.01;20.21
63652;BME280;49801;37.536;-122.304;2023-02-01T00:53:24;101934.44;;;13.04;20.45
63652;BME280;49801;37.536;-122.304;2023-02-01T00:53:50;101936.63;;;13.00;20.14
63652;BME280;49801;37.536;-122.304;2023-02-01T00:54:16;101918.53;;;12.91;20.13
63652;BME280;49801;37.536;-122.304;2023-02-01T00:54:42;101931.69;;;12.95;19.76
63652;BME280;49801;37.536;-122.304;2023-02-01T00:55:09;101934.22;;;12.97;20.09
63652;BME280;49801;37.536;-122.304;2023-02-01T00:55:35;101930.97;;;12.93;19.89
63652;BME280;49801;37.536;-122.304;2023-02-01T00:56:01;101934.00;;;12.90;19.98
63652;BME280;49801;37.536;-122.304;2023-02-01T00:56:27;101941.84;;;12.93;20.11
63652;BME280;49801;37.536;-122.304;2023-02-01T00:56:53;101927.75;;;12.90;20.17
63652;BME280;49801;37.536;-122.304;2023-02-01T00:57:19;101901.59;;;12.71;20.77
63652;BME280;49801;37.536;-122.304;2023-02-01T00:57:45;101940.41;;;12.81;20.56
63652;BME280;49801;37.536;-122.304;2023-02-01T00:58:12;101913.78;;;12.67;20.41
63652;BME280;49801;37.536;-122.304;2023-02-01T00:58:38;101936.44;;;12.75;20.09
63652;BME280;49801;37.536;-122.304;2023-02-01T00:59:04;101940.72;;;12.78;20.27
63652;BME280;49801;37.536;-122.304;2023-02-01T00:59:30;101930.16;;;12.75;20.53
63652;BME280;49801;37.536;-122.304;2023-02-01T00:59:57;101937.69;;;12.81;20.53
63652;BME280;49801;37.536;-122.304;2023-02-01T01:00:23;101934.66;;;12.84;20.77
63652;BME280;49801;37.536;-122.304;2023-02-01T01:00:49;101942.81;;;12.84;21.24
63652;BME280;49801;37.536;-122.304;2023-02-01T01:01:19;101939.22;;;12.84;21.66
63652;BME280;49801;37.536;-122.304;2023-02-01T01:01:46;101933.56;;;12.77;21.69
63652;BME280;49801;37.536;-122.304;2023-02-01T01:02:12;101936.13;;;12.79;21.44
63652;BME280;49801;37.536;-122.304;2023-02-01T01:02:39;101913.09;;;12.65;21.68
63652;BME280;49801;37.536;-122.304;2023-02-01T01:03:07;101929.41;;;12.65;21.91
63652;BME280;49801;37.536;-122.304;2023-02-01T01:03:48;101936.56;;;12.66;20.91
63652;BME280;49801;37.536;-122.304;2023-02-01T01:04:16;101934.06;;;12.54;21.30
63652;BME280;49801;37.536;-122.304;2023-02-01T01:04:42;101931.63;;;12.43;21.46
63652;BME280;49801;37.536;-122.304;2023-02-01T01:05:08;101935.78;;;12.55;21.42
63652;BME280;49801;37.536;-122.304;2023-02-01T01:05:34;101938.50;;;12.55;21.28
63652;BME280;49801;37.536;-122.304;2023-02-01T01:06:03;101928.94;;;12.51;21.98
63652;BME280;49801;37.536;-122.304;2023-02-01T01:06:32;101918.19;;;12.42;21.96
63652;BME280;49801;37.536;-122.304;2023-02-01T01:06:59;101942.38;;;12.53;22.14
63652;BME280;49801;37.536;-122.304;2023-02-01T01:07:25;101934.38;;;12.51;22.36
63652;BME280;49801;37.536;-122.304;2023-02-01T01:07:51;101941.84;;;12.49;22.38
63652;BME280;49801;37.536;-122.304;2023-02-01T01:08:18;101937.59;;;12.47;22.29
63652;BME280;49801;37.536;-122.304;2023-02-01T01:08:44;101939.59;;;12.45;22.41
63652;BME280;49801;37.536;-122.304;2023-02-01T01:09:10;101929.34;;;12.38;22.54
63652;BME280;49801;37.536;-122.304;2023-02-01T01:09:36;101931.06;;;12.40;21.86
63652;BME280;49801;37.536;-122.304;2023-02-01T01:10:02;101928.56;;;12.28;21.38
63652;BME280;49801;37.536;-122.304;2023-02-01T01:10:29;101945.13;;;12.35;21.69
63652;BME280;49801;37.536;-122.304;2023-02-01T01:10:56;101941.69;;;12.33;21.74
63652;BME280;49801;37.536;-122.304;2023-02-01T01:11:26;101940.97;;;12.31;22.10
63652;BME280;49801;37.536;-122.304;2023-02-01T01:11:52;101948.13;;;12.32;22.21
63652;BME280;49801;37.536;-122.304;2023-02-01T01:12:19;101941.47;;;12.26;23.18
63652;BME280;49801;37.536;-122.304;2023-02-01T01:12:45;101949.91;;;12.23;22.69
63652;BME280;49801;37.536;-122.304;2023-02-01T01:13:11;101944.25;;;12.16;22.22
63652;BME280;49801;37.536;-122.304;2023-02-01T01:13:37;101946.94;;;12.16;22.37
63652;BME280;49801;37.536;-122.304;2023-02-01T01:14:05;101940.00;;;12.14;22.21
63652;BME280;49801;37.536;-122.304;2023-02-01T01:14:32;101918.22;;;11.96;22.44
63652;BME280;49801;37.536;-122.304;2023-02-01T01:14:58;101950.84;;;12.14;22.08
63652;BME280;49801;37.536;-122.304;2023-02-01T01:15:24;101940.59;;;12.08;22.57
63652;BME280;49801;37.536;-122.304;2023-02-01T01:15:50;101936.78;;;12.00;21.78
63652;BME280;49801;37.536;-122.304;2023-02-01T01:16:18;101955.56;;;12.12;21.58
63652;BME280;49801;37.536;-122.304;2023-02-01T01:16:44;101954.72;;;12.11;22.17
63652;BME280;49801;37.536;-122.304;2023-02-01T01:17:11;101952.16;;;12.10;21.72
63652;BME280;49801;37.536;-122.304;2023-02-01T01:17:37;101948.19;;;12.04;21.95
63652;BME280;49801;37.536;-122.304;2023-02-01T01:18:03;101955.00;;;12.08;21.84
63652;BME280;49801;37.536;-122.304;2023-02-01T01:18:30;101960.44;;;12.08;22.19
63652;BME280;49801;37.536;-122.304;2023-02-01T01:18:58;101957.72;;;12.08;22.02
63652;BME280;49801;37.536;-122.304;2023-02-01T01:19:24;101955.34;;;12.05;22.12
63652;BME280;49801;37.536;-122.304;2023-02-01T01:19:50;101938.81;;;11.89;22.23
63652;BME280;49801;37.536;-122.304;2023-02-01T01:20:16;101959.34;;;12.01;22.51
63652;BME280;49801;37.536;-122.304;2023-02-01T01:20:43;101952.53;;;11.97;22.80
63652;BME280;49801;37.536;-122.304;2023-02-01T01:21:11;101948.25;;;11.94;22.97
63652;BME280;49801;37.536;-122.304;2023-02-01T01:21:38;101952.53;;;11.97;23.28
63652;BME280;49801;37.536;-122.304;2023-02-01T01:22:04;101954.53;;;11.95;23.57
63652;BME280;49801;37.536;-122.304;2023-02-01T01:22:30;101959.97;;;11.95;23.67
63652;BME280;49801;37.536;-122.304;2023-02-01T01:22:56;101936.00;;;11.80;24.21
63652;BME280;49801;37.536;-122.304;2023-02-01T01:23:23;101963.25;;;11.89;24.34
63652;BME280;49801;37.536;-122.304;2023-02-01T01:23:49;101967.09;;;11.86;24.45
63652;BME280;49801;37.536;-122.304;2023-02-01T01:24:15;101960.13;;;11.83;24.62
63652;BME280;49801;37.536;-122.304;2023-02-01T01:24:41;101970.28;;;11.81;24.63
63652;BME280;49801;37.536;-122.304;2023-02-01T01:25:07;101966.16;;;11.77;24.63
63652;BME280;49801;37.536;-122.304;2023-02-01T01:25:38;101963.91;;;11.73;24.91
63652;BME280;49801;37.536;-122.304;2023-02-01T01:26:08;101943.16;;;11.54;25.16
63652;BME280;49801;37.536;-122.304;2023-02-01T01:26:35;101964.94;;;11.62;25.23
63652;BME280;49801;37.536;-122.304;2023-02-01T01:27:01;101963.25;;;11.61;25.40
63652;BME280;49801;37.536;-122.304;2023-02-01T01:27:27;101967.97;;;11.59;25.69
63652;BME280;49801;37.536;-122.304;2023-02-01T01:27:53;101959.28;;;11.55;25.85
63652;BME280;49801;37.536;-122.304;2023-02-01T01:28:19;101965.84;;;11.53;26.04
63652;BME280;49801;37.536;-122.304;2023-02-01T01:28:46;101968.16;;;11.48;26.63
63652;BME280;49801;37.536;-122.304;2023-02-01T01:29:12;101972.31;;;11.42;26.86
63652;BME280;49801;37.536;-122.304;2023-02-01T01:29:38;101964.75;;;11.36;26.62
63652;BME280;49801;37.536;-122.304;2023-02-01T01:30:05;101973.78;;;11.36;27.25
63652;BME280;49801;37.536;-122.304;2023-02-01T01:30:32;101969.50;;;11.34;27.28
63652;BME280;49801;37.536;-122.304;2023-02-01T01:30:59;101974.34;;;11.30;27.08
63652;BME280;49801;37.536;-122.304;2023-02-01T01:31:26;101969.22;;;11.27;27.20
63652;BME280;49801;37.536;-122.304;2023-02-01T01:31:52;101971.38;;;11.23;27.42
63652;BME280;49801;37.536;-122.304;2023-02-01T01:32:18;101976.25;;;11.20;28.14
63652;BME280;49801;37.536;-122.304;2023-02-01T01:32:45;101967.69;;;11.15;28.41
63652;BME280;49801;37.536;-122.304;2023-02-01T01:33:11;101951.72;;;11.02;28.91
63652;BME280;49801;37.536;-122.304;2023-02-01T01:33:37;101954.59;;;11.00;29.07
63652;BME280;49801;37.536;-122.304;2023-02-01T01:34:04;101973.69;;;11.08;29.27
63652;BME280;49801;37.536;-122.304;2023-02-01T01:34:30;101972.28;;;11.04;29.13
63652;BME280;49801;37.536;-122.304;2023-02-01T01:34:56;101975.28;;;11.01;29.22
63652;BME280;49801;37.536;-122.304;2023-02-01T01:35:22;101948.91;;;10.84;29.50
63652;BME280;49801;37.536;-122.304;2023-02-01T01:35:49;101954.06;;;10.87;29.52
63652;BME280;49801;37.536;-122.304;2023-02-01T01:36:15;101962.88;;;10.89;29.70
63652;BME280;49801;37.536;-122.304;2023-02-01T01:36:41;101974.44;;;10.91;29.81
63652;BME280;49801;37.536;-122.304;2023-02-01T01:37:08;101970.31;;;10.87;29.79
63652;BME280;49801;37.536;-122.304;2023-02-01T01:37:34;101980.44;;;10.85;30.28
63652;BME280;49801;37.536;-122.304;2023-02-01T01:38:01;101979.72;;;10.83;30.21
63652;BME280;49801;37.536;-122.304;2023-02-01T01:38:28;101978.16;;;10.80;30.58
63652;BME280;49801;37.536;-122.304;2023-02-01T01:38:54;101969.75;;;10.74;30.42
63652;BME280;49801;37.536;-122.304;2023-02-01T01:39:20;101973.31;;;10.74;30.56
63652;BME280;49801;37.536;-122.304;2023-02-01T01:39:46;101978.88;;;10.73;30.87
63652;BME280;49801;37.536;-122.304;2023-02-01T01:40:13;101973.91;;;10.68;31.13
63652;BME280;49801;37.536;-122.304;2023-02-01T01:40:39;101967.19;;;10.62;31.15
63652;BME280;49801;37.536;-122.304;2023-02-01T01:41:05;101977.88;;;10.64;31.43
63652;BME280;49801;37.536;-122.304;2023-02-01T01:41:32;101952.66;;;10.44;31.79
63652;BME280;49801;37.536;-122.304;2023-02-01T01:41:58;101968.19;;;10.51;31.57
63652;BME280;49801;37.536;-122.304;2023-02-01T01:42:24;101978.16;;;10.51;31.97
63652;BME280;49801;37.536;-122.304;2023-02-01T01:42:50;101973.75;;;10.40;32.71
63652;BME280;49801;37.536;-122.304;2023-02-01T01:43:20;101932.06;;;10.12;32.92
63652;BME280;49801;37.536;-122.304;2023-02-01T01:44:01;101978.88;;;10.34;32.92
63652;BME280;49801;37.536;-122.304;2023-02-01T01:45:31;101974.56;;;10.21;33.00
63652;BME280;49801;37.536;-122.304;2023-02-01T01:45:57;101975.69;;;10.19;33.35
63652;BME280;49801;37.536;-122.304;2023-02-01T01:46:26;101968.72;;;10.16;33.51
63652;BME280;49801;37.536;-122.304;2023-02-01T01:46:52;101971.56;;;10.14;33.36
63652;BME280;49801;37.536;-122.304;2023-02-01T01:47:19;101978.78;;;10.14;33.38
63652;BME280;49801;37.536;-122.304;2023-02-01T01:47:48;101977.38;;;10.10;33.55
63652;BME280;49801;37.536;-122.304;2023-02-01T01:48:30;101973.97;;;10.08;33.31
63652;BME280;49801;37.536;-122.304;2023-02-01T01:49:07;101979.91;;;10.02;33.60
63652;BME280;49801;37.536;-122.304;2023-02-01T01:49:35;101977.47;;;9.99;33.47
63652;BME280;49801;37.536;-122.304;2023-02-01T01:50:02;101980.50;;;9.95;33.31
63652;BME280;49801;37.536;-122.304;2023-02-01T01:50:38;101979.03;;;9.91;33.23
63652;BME280;49801;37.536;-122.304;2023-02-01T01:51:09;101965.34;;;9.83;32.79
63652;BME280;49801;37.536;-122.304;2023-02-01T01:51:37;101981.03;;;9.89;32.85
63652;BME280;49801;37.536;-122.304;2023-02-01T01:52:05;101982.31;;;9.85;33.07
63652;BME280;49801;37.536;-122.304;2023-02-01T01:52:32;101974.47;;;9.82;33.73
63652;BME280;49801;37.536;-122.304;2023-02-01T01:53:01;101975.72;;;9.78;34.07
63652;BME280;49801;37.536;-122.304;2023-02-01T01:53:35;101962.56;;;9.64;34.80
63652;BME280;49801;37.536;-122.304;2023-02-01T01:54:49;101973.66;;;9.61;34.30
63652;BME280;49801;37.536;-122.304;2023-02-01T01:54:58;101978.50;;;9.57;34.25
63652;BME280;49801;37.536;-122.304;2023-02-01T01:55:26;101991.44;;;9.53;34.64
63652;BME280;49801;37.536;-122.304;2023-02-01T01:55:55;101977.19;;;9.51;34.47
63652;BME280;49801;37.536;-122.304;2023-02-01T01:56:22;101983.88;;;9.47;34.93
63652;BME280;49801;37.536;-122.304;2023-02-01T01:56:53;101985.56;;;9.48;35.05
63652;BME280;49801;37.536;-122.304;2023-02-01T01:57:29;101977.56;;;9.37;35.61
63652;BME280;49801;37.536;-122.304;2023-02-01T01:58:04;101985.38;;;9.40;35.82
63652;BME280;49801;37.536;-122.304;2023-02-01T01:58:33;101980.97;;;9.39;35.68
63652;BME280;49801;37.536;-122.304;2023-02-01T01:59:00;101988.38;;;9.37;36.01
63652;BME280;49801;37.536;-122.304;2023-02-01T01:59:27;101972.22;;;9.26;35.65
63652;BME280;49801;37.536;-122.304;2023-02-01T02:00:03;101979.06;;;9.30;35.70
63652;BME280;49801;37.536;-122.304;2023-02-01T02:00:32;101987.91;;;9.32;35.81
63652;BME280;49801;37.536;-122.304;2023-02-01T02:00:58;101986.19;;;9.31;35.87
63652;BME280;49801;37.536;-122.304;2023-02-01T02:01:25;101988.91;;;9.31;36.03
63652;BME280;49801;37.536;-122.304;2023-02-01T02:01:52;101992.56;;;9.30;36.10
63652;BME280;49801;37.536;-122.304;2023-02-01T02:02:18;101995.56;;;9.27;36.43
63652;BME280;49801;37.536;-122.304;2023-02-01T02:02:47;101996.69;;;9.24;36.77
63652;BME280;49801;37.536;-122.304;2023-02-01T02:03:37;101961.56;;;9.03;36.80
63652;BME280;49801;37.536;-122.304;2023-02-01T02:04:05;101999.78;;;9.19;36.77
63652;BME280;49801;37.536;-122.304;2023-02-01T02:04:32;102000.06;;;9.16;36.62
63652;BME280;49801;37.536;-122.304;2023-02-01T02:05:00;101992.22;;;9.13;36.83
63652;BME280;49801;37.536;-122.304;2023-02-01T02:05:26;102003.16;;;9.12;36.95
63652;BME280;49801;37.536;-122.304;2023-02-01T02:05:55;102001.44;;;9.11;37.22
63652;BME280;49801;37.536;-122.304;2023-02-01T02:06:41;101998.13;;;9.07;37.46
63652;BME280;49801;37.536;-122.304;2023-02-01T02:07:17;101998.81;;;8.99;37.55
63652;BME280;49801;37.536;-122.304;2023-02-01T02:07:49;101998.69;;;9.01;37.38
63652;BME280;49801;37.536;-122.304;2023-02-01T02:08:18;101999.66;;;9.00;37.41
63652;BME280;49801;37.536;-122.304;2023-02-01T02:08:45;101997.94;;;8.99;37.49
63652;BME280;49801;37.536;-122.304;2023-02-01T02:09:12;101986.19;;;8.89;37.56
63652;BME280;49801;37.536;-122.304;2023-02-01T02:09:38;101995.66;;;8.94;37.77
63652;BME280;49801;37.536;-122.304;2023-02-01T02:10:08;101961.03;;;8.67;38.12
63652;BME280;49801;37.536;-122.304;2023-02-01T02:10:36;101999.72;;;8.89;38.15
63652;BME280;49801;37.536;-122.304;2023-02-01T02:11:22;101991.69;;;8.77;38.39
63652;BME280;49801;37.536;-122.304;2023-02-01T02:11:48;101997.22;;;8.76;38.32
63652;BME280;49801;37.536;-122.304;2023-02-01T02:12:14;102008.59;;;8.79;38.38
63652;BME280;49801;37.536;-122.304;2023-02-01T02:12:42;102002.47;;;8.77;38.62
63652;BME280;49801;37.536;-122.304;2023-02-01T02:13:10;102004.59;;;8.74;38.79
63652;BME280;49801;37.536;-122.304;2023-02-01T02:13:46;102001.75;;;8.75;38.94
63652;BME280;49801;37.536;-122.304;2023-02-01T02:14:17;102009.16;;;8.73;38.57
63652;BME280;49801;37.536;-122.304;2023-02-01T02:14:45;102009.41;;;8.70;38.61
63652;BME280;49801;37.536;-122.304;2023-02-01T02:15:14;102007.66;;;8.69;38.93
63652;BME280;49801;37.536;-122.304;2023-02-01T02:15:56;101999.63;;;8.58;39.72
63652;BME280;49801;37.536;-122.304;2023-02-01T02:17:51;102015.06;;;8.56;39.42
63652;BME280;49801;37.536;-122.304;2023-02-01T02:18:38;102000.13;;;8.40;39.86
63652;BME280;49801;37.536;-122.304;2023-02-01T02:20:30;102021.00;;;8.38;39.70
63652;BME280;49801;37.536;-122.304;2023-02-01T02:24:09;102025.25;;;8.08;39.42
63652;BME280;49801;37.536;-122.304;2023-02-01T02:25:11;102022.06;;;8.03;39.96
63652;BME280;49801;37.536;-122.304;2023-02-01T02:26:37;102025.25;;;7.97;39.73
63652;BME280;49801;37.536;-122.304;2023-02-01T02:31:34;102016.22;;;7.76;39.83
63652;BME280;49801;37.536;-122.304;2023-02-01T02:34:55;102025.53;;;7.60;39.82
63652;BME280;49801;37.536;-122.304;2023-02-01T02:35:30;102018.41;;;7.59;39.73
63652;BME280;49801;37.536;-122.304;2023-02-01T02:38:17;102026.22;;;7.51;40.26
63652;BME280;49801;37.536;-122.304;2023-02-01T02:40:21;102022.06;;;7.47;40.32
63652;BME280;49801;37.536;-122.304;2023-02-01T02:40:32;102034.31;;;7.40;40.16